Portada
METAR-TAF:

METAR-TAF

Aeropuertos :

Bou Saâda, Argelia

latitud: 35-20N, longitud: 004-12E, altitud: 461 m

Observación

El informe se hizo hace 20 minutos, a las 13:00 UTC
Viento 6 kt del norte
Temperatura 24°C
Humedad 50%
Presión 1014 hPa
Visibilidad 10 km o más
Nubes dispersas a una altura de 3000 ft

METAR: DAAD 271300Z 01006KT 9999 SCT030 24/13 Q1014

Hora: 14:20 (13:20 UTC)

Pronóstico

El informe se hizo hace 2 horas y 20 minutos, a las 11:00 UTC
Pronóstico válido del 27 a las 12 UTC al 27 a las 21 UTC
Viento 14 kt del norte-noroeste
Visibilidad 10 km o más
Escasas nubes a una altura de 3000 ft

TAF: DAAD 271100Z 2712/2721 34014KT 9999 FEW030

Observaciones y pronósticos meteorológicos de más de 4000 aeropuertos (mensajes METAR y TAF).

Los puntos amarillos y rojos representan las estaciones disponibles.

Ponga el ratón en el punto deseado para ver el nombre de la estación.

Haga clic para ver las observaciones y los pronósticos meteorológicos.

Para cambiar el mapa : haga clic en los botones verdes con una cruz de color negro para hacer un zoom, en el botón verde con un guión para alejar o en las flechas verdes para mapas adyacentes.


METAR-TAF: